createdAt,value
2022-10-23T00:01:41.624Z,100401.59
2022-10-23T00:04:11.453Z,100414.34
2022-10-23T00:06:38.012Z,100418.78
2022-10-23T00:09:06.418Z,100413.88
2022-10-23T00:11:36.351Z,100409.41
2022-10-23T00:14:05.968Z,100412.03
2022-10-23T00:16:34.605Z,100406.81
2022-10-23T00:19:01.165Z,100423.03
2022-10-23T00:21:27.887Z,100429.22
2022-10-23T00:24:01.945Z,100430.13
2022-10-23T00:26:30.979Z,100425.03
2022-10-23T00:29:00.451Z,100434.81
2022-10-23T00:31:29.413Z,100427.59
2022-10-23T00:33:58.268Z,100436.00
2022-10-23T00:36:24.842Z,100434.63
2022-10-23T00:38:53.836Z,100437.50
2022-10-23T00:41:28.509Z,100443.50
2022-10-23T00:44:08.626Z,100441.16
2022-10-23T00:46:40.117Z,100452.19
2022-10-23T00:49:09.875Z,100457.81
2022-10-23T00:51:51.312Z,100454.34
2022-10-23T00:54:24.455Z,100450.31
2022-10-23T00:56:56.122Z,100462.81
2022-10-23T00:59:22.880Z,100465.94
2022-10-23T01:01:49.630Z,100468.38
2022-10-23T01:04:18.994Z,100456.50
2022-10-23T01:07:14.091Z,100461.59
2022-10-23T01:10:02.121Z,100470.56
2022-10-23T01:12:28.544Z,100480.00
2022-10-23T01:15:10.843Z,100479.03
2022-10-23T01:17:46.609Z,100480.44
2022-10-23T01:20:44.007Z,100475.13
2022-10-23T01:23:32.404Z,100482.25
2022-10-23T01:26:18.968Z,100487.78
2022-10-23T01:28:45.403Z,100481.94
2022-10-23T01:31:18.776Z,100481.94
2022-10-23T01:33:53.862Z,100482.00
2022-10-23T01:36:26.624Z,100486.97
2022-10-23T01:38:56.060Z,100480.84
2022-10-23T01:41:44.523Z,100480.84
2022-10-23T01:44:22.677Z,100482.38
2022-10-23T01:46:52.157Z,100481.81
2022-10-23T01:49:23.745Z,100484.28
2022-10-23T01:52:02.059Z,100488.59
2022-10-23T01:54:38.744Z,100484.00
2022-10-23T01:57:13.013Z,100488.16
2022-10-23T01:59:44.580Z,100482.84
2022-10-23T02:02:13.703Z,100482.16
2022-10-23T02:04:52.267Z,100478.75
2022-10-23T02:07:21.873Z,100481.84
2022-10-23T02:09:50.717Z,100483.16
2022-10-23T02:12:41.176Z,100475.63
2022-10-23T02:15:22.329Z,100484.34
2022-10-23T02:18:14.930Z,100484.31
2022-10-23T02:20:56.283Z,100480.75
2022-10-23T02:23:27.768Z,100482.50
2022-10-23T02:26:06.548Z,100482.38
2022-10-23T02:28:40.324Z,100477.13
2022-10-23T02:31:12.712Z,100484.81
2022-10-23T02:33:39.631Z,100483.09
2022-10-23T02:36:09.338Z,100486.63
2022-10-23T02:38:42.629Z,100493.75
2022-10-23T02:41:30.856Z,100497.44
2022-10-23T02:44:27.744Z,100499.97
2022-10-23T02:47:09.282Z,100504.31
2022-10-23T02:49:54.492Z,100504.38
2022-10-23T02:52:22.785Z,100512.34
2022-10-23T02:55:07.947Z,100523.59
2022-10-23T02:57:58.780Z,100517.53
2022-10-23T03:00:25.824Z,100516.56
2022-10-23T03:03:10.098Z,100510.53
2022-10-23T03:05:40.212Z,100514.25
2022-10-23T03:08:10.228Z,100523.44
2022-10-23T03:10:39.515Z,100519.63
2022-10-23T03:13:06.423Z,100522.56
2022-10-23T03:15:35.831Z,100530.59
2022-10-23T03:18:05.243Z,100538.34
2022-10-23T03:20:31.809Z,100538.06
2022-10-23T03:22:58.408Z,100534.47
2022-10-23T03:25:25.383Z,100531.94
2022-10-23T03:27:56.596Z,100537.31
2022-10-23T03:30:23.250Z,100536.50
2022-10-23T03:32:52.278Z,100528.06
2022-10-23T03:35:21.163Z,100534.09
2022-10-23T03:37:48.127Z,100535.69
2022-10-23T03:40:19.476Z,100532.09
2022-10-23T03:42:48.586Z,100527.56
2022-10-23T03:45:17.396Z,100537.59
2022-10-23T03:47:51.941Z,100527.56
2022-10-23T03:50:21.448Z,100541.38
2022-10-23T03:52:50.500Z,100532.78
2022-10-23T03:55:22.104Z,100537.59
2022-10-23T03:57:48.701Z,100535.28
2022-10-23T04:00:17.626Z,100542.75
2022-10-23T04:02:47.034Z,100537.59
2022-10-23T04:05:16.218Z,100546.56
2022-10-23T04:07:47.670Z,100547.03
2022-10-23T04:10:14.234Z,100550.69
2022-10-23T04:12:41.178Z,100543.88
2022-10-23T04:15:11.302Z,100541.13
2022-10-23T04:17:37.936Z,100538.19
2022-10-23T04:20:06.904Z,100538.78
2022-10-23T04:22:36.151Z,100536.16
2022-10-23T04:25:02.892Z,100543.00
2022-10-23T04:27:31.839Z,100540.59
2022-10-23T04:29:59.167Z,100535.81
2022-10-23T04:32:28.377Z,100530.78
2022-10-23T04:34:55.146Z,100529.94
2022-10-23T04:37:24.367Z,100524.06
2022-10-23T04:39:50.945Z,100515.69
2022-10-23T04:42:22.324Z,100530.09
2022-10-23T04:44:48.943Z,100528.84
2022-10-23T04:47:18.099Z,100533.22
2022-10-23T04:49:44.505Z,100536.50
2022-10-23T04:52:16.264Z,100538.75
2022-10-23T04:54:45.347Z,100538.38
2022-10-23T04:57:14.223Z,100547.16
2022-10-23T04:59:40.886Z,100551.72
2022-10-23T05:02:09.968Z,100549.34
2022-10-23T05:04:39.184Z,100543.91
2022-10-23T05:07:10.411Z,100549.66
2022-10-23T05:09:39.322Z,100549.28
2022-10-23T05:12:06.163Z,100549.59
2022-10-23T05:14:34.944Z,100555.22
2022-10-23T05:17:10.333Z,100558.53
2022-10-23T05:19:45.144Z,100550.34
2022-10-23T05:22:13.635Z,100555.56
2022-10-23T05:24:49.668Z,100551.94
2022-10-23T05:27:17.328Z,100542.59
2022-10-23T05:29:46.295Z,100555.56
2022-10-23T05:32:15.801Z,100552.38
2022-10-23T05:34:43.411Z,100555.38
2022-10-23T05:37:15.719Z,100562.44
2022-10-23T05:39:42.983Z,100568.41
2022-10-23T05:42:09.862Z,100567.66
2022-10-23T05:44:36.910Z,100577.06
2022-10-23T05:47:05.701Z,100575.16
2022-10-23T05:49:34.847Z,100574.97
2022-10-23T05:52:03.648Z,100576.28
2022-10-23T05:54:30.285Z,100563.72
2022-10-23T05:56:59.126Z,100558.59
2022-10-23T05:59:28.360Z,100558.72
2022-10-23T06:01:55.095Z,100552.53
2022-10-23T06:04:24.660Z,100560.97
2022-10-23T06:06:51.245Z,100568.00
2022-10-23T06:09:17.895Z,100572.31
2022-10-23T06:11:46.954Z,100578.09
2022-10-23T06:14:13.421Z,100579.78
2022-10-23T06:16:42.554Z,100569.88
2022-10-23T06:19:14.531Z,100569.41
2022-10-23T06:21:43.579Z,100583.34
2022-10-23T06:24:12.847Z,100593.94
2022-10-23T06:26:39.340Z,100593.94
2022-10-23T06:29:06.046Z,100602.88
2022-10-23T06:31:32.752Z,100598.78
2022-10-23T06:34:01.996Z,100607.63
2022-10-23T06:36:28.738Z,100608.13
2022-10-23T06:38:57.524Z,100610.50
2022-10-23T06:41:24.172Z,100616.19
2022-10-23T06:43:53.767Z,100618.41
2022-10-23T06:46:23.426Z,100616.56
2022-10-23T06:48:52.300Z,100622.09
2022-10-23T06:51:25.073Z,100626.66
2022-10-23T06:53:53.952Z,100620.81
2022-10-23T06:56:23.189Z,100622.53
2022-10-23T06:58:52.426Z,100625.28
2022-10-23T07:01:21.574Z,100626.38
2022-10-23T07:03:49.107Z,100621.78
2022-10-23T07:06:18.189Z,100626.13
2022-10-23T07:08:49.767Z,100628.81
2022-10-23T07:11:16.348Z,100631.03
2022-10-23T07:13:46.694Z,100631.94
2022-10-23T07:16:16.622Z,100635.81
2022-10-23T07:18:46.130Z,100637.44
2022-10-23T07:21:12.870Z,100636.00
2022-10-23T07:23:40.357Z,100641.44
2022-10-23T07:26:16.182Z,100638.38
2022-10-23T07:28:47.692Z,100637.03
2022-10-23T07:31:14.677Z,100628.53
2022-10-23T07:33:49.351Z,100626.81
2022-10-23T07:36:18.954Z,100619.97
2022-10-23T07:38:50.558Z,100619.34
2022-10-23T07:41:17.720Z,100618.84
2022-10-23T07:43:44.754Z,100615.44
2022-10-23T07:46:13.637Z,100621.47
2022-10-23T07:48:43.040Z,100619.00
2022-10-23T07:51:15.077Z,100626.09
2022-10-23T07:53:44.500Z,100623.31
2022-10-23T07:56:21.174Z,100618.16
2022-10-23T07:58:47.811Z,100622.34
2022-10-23T08:01:27.841Z,100618.13
2022-10-23T08:03:54.498Z,100619.00
2022-10-23T08:06:23.252Z,100622.06
2022-10-23T08:08:54.724Z,100617.84
2022-10-23T08:11:28.868Z,100611.13
2022-10-23T08:13:59.045Z,100616.28
2022-10-23T08:16:28.056Z,100613.13
2022-10-23T08:18:56.857Z,100621.72
2022-10-23T08:21:26.276Z,100610.50
2022-10-23T08:23:59.450Z,100616.59
2022-10-23T08:26:26.890Z,100618.44
2022-10-23T08:28:56.103Z,100616.91
2022-10-23T08:31:25.402Z,100615.59
2022-10-23T08:33:52.089Z,100614.88
2022-10-23T08:36:28.753Z,100614.13
2022-10-23T08:38:58.964Z,100613.41
2022-10-23T08:41:28.099Z,100627.13
2022-10-23T08:44:00.788Z,100627.94
2022-10-23T08:46:34.320Z,100626.50
2022-10-23T08:49:29.744Z,100627.38
2022-10-23T08:51:59.984Z,100623.28
2022-10-23T08:54:49.710Z,100618.84
2022-10-23T08:57:20.632Z,100621.47
2022-10-23T08:59:51.687Z,100621.44
2022-10-23T09:02:23.393Z,100620.69
2022-10-23T09:04:53.710Z,100616.41
2022-10-23T09:08:00.241Z,100611.34
2022-10-23T09:10:29.913Z,100608.75
2022-10-23T09:13:11.990Z,100621.56
2022-10-23T09:16:14.311Z,100618.41
2022-10-23T09:18:42.785Z,100612.50
2022-10-23T09:21:13.057Z,100624.84
2022-10-23T09:23:42.339Z,100619.06
2022-10-23T09:26:18.944Z,100620.72
2022-10-23T09:28:49.355Z,100626.78
2022-10-23T09:31:17.906Z,100629.28
2022-10-23T09:34:01.580Z,100625.88
2022-10-23T09:36:29.726Z,100633.91
2022-10-23T09:39:00.534Z,100632.38
2022-10-23T09:41:37.028Z,100627.19
2022-10-23T09:44:28.756Z,100632.44
2022-10-23T09:46:59.992Z,100639.38
2022-10-23T09:49:31.579Z,100629.72
2022-10-23T09:52:10.063Z,100631.69
2022-10-23T09:54:38.772Z,100627.47
2022-10-23T09:57:23.753Z,100633.66
2022-10-23T09:59:53.141Z,100625.69
2022-10-23T10:02:31.802Z,100626.63
2022-10-23T10:04:59.244Z,100628.50
2022-10-23T10:07:31.133Z,100619.00
2022-10-23T10:10:00.168Z,100613.91
2022-10-23T10:12:38.621Z,100612.25
2022-10-23T10:15:13.469Z,100602.72
2022-10-23T10:17:57.965Z,100601.00
2022-10-23T10:20:41.816Z,100601.88
2022-10-23T10:23:28.478Z,100591.47
2022-10-23T10:26:06.876Z,100603.63
2022-10-23T10:28:39.555Z,100596.69
2022-10-23T10:31:20.825Z,100591.50
2022-10-23T10:33:47.414Z,100595.00
2022-10-23T10:38:56.831Z,100588.06
2022-10-23T10:41:38.746Z,100586.31
2022-10-23T10:44:26.744Z,100586.34
2022-10-23T10:47:15.926Z,100574.22
2022-10-23T10:49:54.381Z,100571.63
2022-10-23T10:52:32.449Z,100573.38
2022-10-23T10:55:17.195Z,100569.91
2022-10-23T10:58:04.116Z,100569.03
2022-10-23T11:00:36.513Z,100563.84
2022-10-23T11:03:09.060Z,100556.84
2022-10-23T11:05:43.364Z,100551.72
2022-10-23T11:08:56.195Z,100546.53
2022-10-23T11:11:36.390Z,100544.78
2022-10-23T11:14:03.202Z,100539.53
2022-10-23T11:16:32.390Z,100539.53
2022-10-23T11:19:14.230Z,100537.81
2022-10-23T11:22:17.721Z,100542.13
2022-10-23T11:24:52.360Z,100543.84
2022-10-23T11:27:35.932Z,100536.06
2022-10-23T11:30:24.076Z,100536.97
2022-10-23T11:33:18.468Z,100543.03
2022-10-23T11:35:51.079Z,100529.22
2022-10-23T11:38:22.427Z,100530.06
2022-10-23T11:40:56.505Z,100535.25
2022-10-23T11:43:53.601Z,100532.66
2022-10-23T11:46:23.320Z,100537.78
2022-10-23T11:48:50.929Z,100537.03
2022-10-23T11:51:35.414Z,100532.66
2022-10-23T11:54:24.341Z,100527.47
2022-10-23T11:56:54.874Z,100525.72
2022-10-23T11:59:38.199Z,100524.00
2022-10-23T12:02:19.312Z,100522.25
2022-10-23T12:04:47.428Z,100514.47
2022-10-23T12:07:24.509Z,100510.13
2022-10-23T12:10:43.623Z,100512.75
2022-10-23T12:13:29.034Z,100510.19
2022-10-23T12:15:58.582Z,100500.66
2022-10-23T12:18:29.907Z,100503.25
2022-10-23T12:20:59.289Z,100496.31
2022-10-23T12:23:48.379Z,100494.59
2022-10-23T12:26:39.684Z,100493.72
2022-10-23T12:29:20.859Z,100486.75
2022-10-23T12:31:56.232Z,100492.81
2022-10-23T12:34:31.695Z,100496.31
2022-10-23T12:37:22.993Z,100489.38
2022-10-23T12:39:57.508Z,100483.31
2022-10-23T12:42:29.097Z,100474.63
2022-10-23T12:45:21.643Z,100477.25
2022-10-23T12:47:49.763Z,100478.13
2022-10-23T12:50:37.615Z,100468.59
2022-10-23T12:53:09.176Z,100470.31
2022-10-23T12:56:01.694Z,100463.41
2022-10-23T12:58:35.237Z,100465.16
2022-10-23T13:01:05.265Z,100471.19
2022-10-23T13:03:33.864Z,100472.06
2022-10-23T13:06:03.657Z,100467.75
2022-10-23T13:08:41.721Z,100461.69
2022-10-23T13:11:13.967Z,100453.88
2022-10-23T13:13:43.140Z,100450.44
2022-10-23T13:16:23.045Z,100453.03
2022-10-23T13:18:49.765Z,100450.44
2022-10-23T13:21:22.623Z,100449.56
2022-10-23T13:23:50.287Z,100452.19
2022-10-23T13:26:22.804Z,100440.94
2022-10-23T13:28:50.110Z,100447.88
2022-10-23T13:31:16.699Z,100437.50
2022-10-23T13:33:57.297Z,100437.47
2022-10-23T13:36:27.543Z,100429.72
2022-10-23T13:39:15.362Z,100429.69
2022-10-23T13:41:46.731Z,100427.09
2022-10-23T13:44:16.490Z,100426.22
2022-10-23T13:46:43.691Z,100425.34
2022-10-23T13:49:10.296Z,100427.09
2022-10-23T13:51:48.739Z,100421.00
2022-10-23T13:54:19.333Z,100426.22
2022-10-23T13:56:46.704Z,100416.69
2022-10-23T13:59:16.130Z,100413.22
2022-10-23T14:01:44.324Z,100415.00
2022-10-23T14:04:11.550Z,100423.63
2022-10-23T14:06:38.678Z,100411.50
2022-10-23T14:09:12.046Z,100414.97
2022-10-23T14:11:42.033Z,100408.09
2022-10-23T14:14:11.413Z,100403.72
2022-10-23T14:16:42.880Z,100406.34
2022-10-23T14:19:10.975Z,100396.81
2022-10-23T14:21:40.004Z,100396.81
2022-10-23T14:24:06.867Z,100401.13
2022-10-23T14:26:35.736Z,100393.31
2022-10-23T14:29:06.886Z,100393.31
2022-10-23T14:31:43.481Z,100392.44
2022-10-23T14:34:10.185Z,100383.78
2022-10-23T14:36:49.358Z,100397.63
2022-10-23T14:39:17.724Z,100381.25
2022-10-23T14:41:44.370Z,100383.84
2022-10-23T14:44:13.458Z,100376.88
2022-10-23T14:46:47.659Z,100370.00
2022-10-23T14:49:16.831Z,100361.34
2022-10-23T14:51:45.838Z,100363.03
2022-10-23T14:54:12.560Z,100360.44
2022-10-23T14:56:40.993Z,100362.13
2022-10-23T14:59:12.571Z,100363.00
2022-10-23T15:01:48.622Z,100363.06
2022-10-23T15:04:16.316Z,100361.34
2022-10-23T15:06:43.694Z,100363.06
2022-10-23T15:09:14.271Z,100352.69
2022-10-23T15:11:45.624Z,100349.25
2022-10-23T15:14:17.020Z,100340.59
2022-10-23T15:16:46.370Z,100328.47
2022-10-23T15:19:18.630Z,100321.53
2022-10-23T15:21:47.194Z,100322.41
2022-10-23T15:24:17.931Z,100318.09
2022-10-23T15:26:45.971Z,100314.63
2022-10-23T15:29:23.020Z,100326.75
2022-10-23T15:31:57.567Z,100328.47
2022-10-23T15:34:32.651Z,100338.88
2022-10-23T15:37:01.770Z,100345.78
2022-10-23T15:39:33.981Z,100339.75
2022-10-23T15:42:00.513Z,100338.88
2022-10-23T15:44:32.245Z,100331.94
2022-10-23T15:46:59.026Z,100347.50
2022-10-23T15:49:31.926Z,100343.19
2022-10-23T15:52:00.949Z,100344.06
2022-10-23T15:54:32.694Z,100340.56
2022-10-23T15:57:00.712Z,100347.50
2022-10-23T15:59:32.548Z,100345.78
2022-10-23T16:02:03.970Z,100338.00
2022-10-23T16:04:30.701Z,100346.66
2022-10-23T16:07:02.151Z,100343.22
2022-10-23T16:09:30.224Z,100348.41
2022-10-23T16:11:59.078Z,100350.97
2022-10-23T16:14:28.861Z,100356.19
2022-10-23T16:16:56.665Z,100348.38
2022-10-23T16:19:23.254Z,100353.56
2022-10-23T16:21:52.964Z,100360.47
2022-10-23T16:24:24.309Z,100361.34
2022-10-23T16:26:56.789Z,100363.94
2022-10-23T16:29:25.735Z,100380.41
2022-10-23T16:31:58.967Z,100390.75
2022-10-23T16:34:25.909Z,100389.06
2022-10-23T16:36:54.809Z,100388.19
2022-10-23T16:39:21.982Z,100378.69
2022-10-23T16:41:51.183Z,100378.66
2022-10-23T16:44:18.770Z,100386.44
2022-10-23T16:46:45.717Z,100376.94
2022-10-23T16:49:17.654Z,100367.41
2022-10-23T16:51:50.952Z,100374.34
2022-10-23T16:54:19.813Z,100375.22
2022-10-23T16:56:49.936Z,100392.50
2022-10-23T16:59:21.181Z,100404.59
2022-10-23T17:01:53.299Z,100389.91
2022-10-23T17:04:20.323Z,100398.56
2022-10-23T17:06:49.608Z,100403.75
2022-10-23T17:09:19.759Z,100409.81
2022-10-23T17:11:57.547Z,100408.94
2022-10-23T17:14:30.999Z,100402.88
2022-10-23T17:17:04.346Z,100402.88
2022-10-23T17:19:48.166Z,100400.28
2022-10-23T17:22:19.211Z,100395.97
2022-10-23T17:24:56.220Z,100389.03
2022-10-23T17:27:25.135Z,100385.56
2022-10-23T17:29:51.527Z,100382.13
2022-10-23T17:34:51.834Z,100398.56
2022-10-23T17:37:20.817Z,100385.59
2022-10-23T17:39:47.416Z,100382.97
2022-10-23T17:42:16.432Z,100379.50
2022-10-23T17:44:43.068Z,100382.13
2022-10-23T17:47:09.791Z,100377.81
2022-10-23T17:49:36.467Z,100370.03
2022-10-23T17:52:05.659Z,100366.53
2022-10-23T17:54:34.671Z,100359.59
2022-10-23T17:57:01.209Z,100364.81
2022-10-23T17:59:30.488Z,100363.06
2022-10-23T18:01:59.581Z,100357.88
2022-10-23T18:04:28.838Z,100366.56
2022-10-23T18:06:55.433Z,100370.00
2022-10-23T18:09:23.130Z,100368.28
2022-10-23T18:11:50.283Z,100366.56
2022-10-23T18:14:18.866Z,100369.16
2022-10-23T18:16:48.911Z,100375.22
2022-10-23T18:19:18.417Z,100373.50
2022-10-23T18:21:48.617Z,100374.31
2022-10-23T18:24:15.986Z,100373.47
2022-10-23T18:26:46.153Z,100375.19
2022-10-23T18:29:17.598Z,100373.47
2022-10-23T18:31:49.557Z,100364.84
2022-10-23T18:34:19.303Z,100376.06
2022-10-23T18:36:51.232Z,100372.63
2022-10-23T18:39:25.283Z,100368.28
2022-10-23T18:41:57.045Z,100367.44
2022-10-23T18:44:29.473Z,100373.47
2022-10-23T18:46:57.707Z,100366.56
2022-10-23T18:49:24.355Z,100359.59
2022-10-23T18:51:53.561Z,100364.81
2022-10-23T18:54:23.371Z,100363.97
2022-10-23T18:56:55.954Z,100369.13
2022-10-23T18:59:22.692Z,100371.75
2022-10-23T19:01:52.124Z,100372.63
2022-10-23T19:04:21.192Z,100370.03
2022-10-23T19:06:48.434Z,100358.78
2022-10-23T19:09:15.406Z,100363.97
2022-10-23T19:11:45.552Z,100363.13
2022-10-23T19:14:12.292Z,100356.19
2022-10-23T19:17:08.241Z,100363.13
2022-10-23T19:19:43.232Z,100367.41
2022-10-23T19:22:12.028Z,100359.63
2022-10-23T19:25:43.111Z,100366.56
2022-10-23T19:28:09.692Z,100372.63
2022-10-23T19:34:31.548Z,100369.16
2022-10-23T19:37:04.157Z,100370.81
2022-10-23T19:39:37.177Z,100371.75
2022-10-23T19:43:10.579Z,100365.63
2022-10-23T19:45:39.521Z,100363.09
2022-10-23T19:48:08.528Z,100364.81
2022-10-23T19:50:37.327Z,100360.50
2022-10-23T19:53:14.128Z,100365.69
2022-10-23T19:55:40.615Z,100357.94
2022-10-23T19:58:07.190Z,100363.13
2022-10-23T20:00:33.700Z,100369.13
2022-10-23T20:03:02.800Z,100370.00
2022-10-23T20:05:32.937Z,100374.34
2022-10-23T20:07:59.938Z,100370.88
2022-10-23T20:10:34.097Z,100375.19
2022-10-23T20:13:15.161Z,100375.19
2022-10-23T20:15:45.721Z,100370.03
2022-10-23T20:18:14.777Z,100374.34
2022-10-23T20:20:45.168Z,100372.63
2022-10-23T20:23:22.201Z,100370.88
2022-10-23T20:25:51.096Z,100373.47
2022-10-23T20:28:18.625Z,100364.81
2022-10-23T20:30:46.187Z,100370.03
2022-10-23T20:33:14.058Z,100368.28
2022-10-23T20:35:47.954Z,100355.31
2022-10-23T20:38:20.755Z,100342.31
2022-10-23T20:40:49.313Z,100344.06
2022-10-23T20:43:16.031Z,100343.22
2022-10-23T20:45:44.868Z,100340.63
2022-10-23T20:48:12.145Z,100329.38
2022-10-23T20:50:38.711Z,100329.34
2022-10-23T20:53:11.662Z,100328.50
2022-10-23T20:55:45.455Z,100334.56
2022-10-23T20:58:14.269Z,100325.94
2022-10-23T21:00:43.177Z,100325.94
2022-10-23T21:03:09.776Z,100323.34
2022-10-23T21:05:36.326Z,100330.25
2022-10-23T21:08:03.048Z,100328.50
2022-10-23T21:10:32.146Z,100333.69
2022-10-23T21:12:58.629Z,100325.94
2022-10-23T21:15:28.159Z,100331.13
2022-10-23T21:18:03.973Z,100320.75
2022-10-23T21:20:39.901Z,100326.78
2022-10-23T21:23:06.567Z,100325.06
2022-10-23T21:25:33.299Z,100331.97
2022-10-23T21:27:59.903Z,100328.53
2022-10-23T21:30:28.967Z,100340.63
2022-10-23T21:33:00.727Z,100324.19
2022-10-23T21:35:29.972Z,100321.59
2022-10-23T21:37:59.642Z,100322.50
2022-10-23T21:40:26.391Z,100325.06
2022-10-23T21:42:56.014Z,100338.91
2022-10-23T21:45:27.272Z,100334.59
2022-10-23T21:47:54.053Z,100335.44
2022-10-23T21:50:20.644Z,100341.50
2022-10-23T21:52:52.102Z,100326.78
2022-10-23T21:55:23.820Z,100326.78
2022-10-23T21:57:50.425Z,100316.41
2022-10-23T22:00:19.284Z,100325.88
2022-10-23T22:05:33.510Z,100316.41
2022-10-23T22:08:00.042Z,100320.66
2022-10-23T22:10:28.896Z,100320.63
2022-10-23T22:12:57.690Z,100326.75
2022-10-23T22:15:26.625Z,100319.84
2022-10-23T22:17:53.149Z,100326.75
2022-10-23T22:20:19.733Z,100325.03
2022-10-23T22:22:48.670Z,100318.97
2022-10-23T22:25:15.085Z,100315.53
2022-10-23T22:27:41.770Z,100324.16
2022-10-23T22:30:08.656Z,100326.78
2022-10-23T22:32:35.641Z,100334.59
2022-10-23T22:35:04.458Z,100323.31
2022-10-23T22:37:36.724Z,100334.53
2022-10-23T22:40:03.422Z,100333.66
2022-10-23T22:42:29.955Z,100330.25
2022-10-23T22:44:58.985Z,100332.84
2022-10-23T22:47:29.284Z,100328.53
2022-10-23T22:49:58.071Z,100324.09
2022-10-23T22:52:26.949Z,100318.09
2022-10-23T22:54:53.344Z,100321.56
2022-10-23T22:57:19.892Z,100314.66
2022-10-23T22:59:46.447Z,100316.41
2022-10-23T23:02:12.943Z,100307.72
2022-10-23T23:04:39.656Z,100305.16
2022-10-23T23:07:12.365Z,100307.72
2022-10-23T23:09:45.803Z,100302.56
2022-10-23T23:12:18.643Z,100300.81
2022-10-23T23:14:47.772Z,100306.03
2022-10-23T23:17:14.262Z,100299.97
2022-10-23T23:19:45.759Z,100299.97
2022-10-23T23:22:12.277Z,100302.56
2022-10-23T23:24:41.824Z,100301.69
2022-10-23T23:27:13.151Z,100308.63
2022-10-23T23:29:41.937Z,100306.03
2022-10-23T23:32:11.037Z,100300.81
2022-10-23T23:34:39.746Z,100298.25
2022-10-23T23:37:08.988Z,100299.06
2022-10-23T23:39:37.690Z,100297.31
2022-10-23T23:42:04.332Z,100293.88
2022-10-23T23:44:31.022Z,100292.13
2022-10-23T23:46:57.579Z,100292.03
2022-10-23T23:49:27.315Z,100299.00
2022-10-23T23:51:56.096Z,100292.97
2022-10-23T23:54:22.629Z,100305.06
2022-10-23T23:56:51.368Z,100295.63
2022-10-23T23:59:22.612Z,100297.28
